createdAt,value
2022-12-24T00:03:43.262Z,98820.41
2022-12-24T00:08:47.503Z,98829.06
2022-12-24T00:13:50.562Z,98841.56
2022-12-24T00:18:53.549Z,98843.25
2022-12-24T00:23:57.740Z,98841.66
2022-12-24T00:29:00.527Z,98848.78
2022-12-24T00:34:03.287Z,98874.75
2022-12-24T00:39:07.499Z,98870.19
2022-12-24T00:44:11.305Z,98862.53
2022-12-24T00:49:14.740Z,98879.09
2022-12-24T00:54:18.957Z,98890.91
2022-12-24T00:59:21.920Z,98901.81
2022-12-24T01:04:42.058Z,98909.03
2022-12-24T01:09:46.267Z,98915.84
2022-12-24T01:14:52.053Z,98931.59
2022-12-24T01:19:54.822Z,98932.88
2022-12-24T01:24:59.087Z,98930.16
2022-12-24T01:30:02.036Z,98940.94
2022-12-24T01:35:05.726Z,98949.47
2022-12-24T01:40:34.654Z,98945.50
2022-12-24T01:45:49.583Z,98956.00
2022-12-24T01:51:01.763Z,98957.00
2022-12-24T01:56:08.678Z,98968.19
2022-12-24T02:01:11.710Z,98963.78
2022-12-24T02:06:16.501Z,98971.44
2022-12-24T02:11:23.278Z,98982.22
2022-12-24T02:16:40.696Z,98978.25
2022-12-24T02:21:52.122Z,98989.88
2022-12-24T02:27:17.023Z,98984.22
2022-12-24T02:32:25.834Z,98987.94
2022-12-24T02:37:34.391Z,99001.81
2022-12-24T02:42:41.592Z,99005.22
2022-12-24T02:47:47.447Z,99001.69
2022-12-24T02:52:50.472Z,99012.88
2022-12-24T02:58:16.105Z,99017.00
2022-12-24T03:03:37.570Z,99023.09
2022-12-24T03:08:49.660Z,99032.19
2022-12-24T03:13:58.708Z,99027.78
2022-12-24T03:19:03.068Z,99038.16
2022-12-24T03:24:06.377Z,99045.94
2022-12-24T03:29:09.956Z,99061.81
2022-12-24T03:34:15.487Z,99065.09
2022-12-24T03:39:18.431Z,99073.19
2022-12-24T03:44:21.209Z,99066.81
2022-12-24T03:49:25.342Z,99090.47
2022-12-24T03:54:28.389Z,99098.72
2022-12-24T03:59:31.204Z,99095.47
2022-12-24T04:04:39.272Z,99109.50
2022-12-24T04:09:42.091Z,99113.47
2022-12-24T04:14:44.907Z,99123.81
2022-12-24T04:19:49.009Z,99131.00
2022-12-24T04:24:51.829Z,99146.72
2022-12-24T04:29:54.572Z,99150.81
2022-12-24T04:34:58.725Z,99160.28
2022-12-24T04:40:01.497Z,99176.00
2022-12-24T04:45:04.670Z,99178.19
2022-12-24T04:50:10.085Z,99191.97
2022-12-24T04:55:12.965Z,99188.25
2022-12-24T05:00:16.069Z,99192.38
2022-12-24T05:05:20.511Z,99201.00
2022-12-24T05:10:23.393Z,99204.09
2022-12-24T05:15:26.191Z,99215.19
2022-12-24T05:20:30.311Z,99221.31
2022-12-24T05:25:54.946Z,99229.66
2022-12-24T05:30:57.728Z,99244.84
2022-12-24T05:36:01.929Z,99245.22
2022-12-24T05:41:05.148Z,99243.19
2022-12-24T05:46:11.452Z,99267.75
2022-12-24T05:51:19.463Z,99274.97
2022-12-24T05:56:24.650Z,99297.97
2022-12-24T06:01:27.864Z,99319.94
2022-12-24T06:06:32.193Z,99313.22
2022-12-24T06:11:35.130Z,99335.63
2022-12-24T06:16:38.215Z,99342.19
2022-12-24T06:21:42.418Z,99339.50
2022-12-24T06:26:45.188Z,99350.72
2022-12-24T06:31:48.018Z,99354.41
2022-12-24T06:36:52.262Z,99361.72
2022-12-24T06:41:54.982Z,99378.31
2022-12-24T06:46:58.138Z,99388.34
2022-12-24T06:52:02.297Z,99397.38
2022-12-24T06:57:05.201Z,99404.81
2022-12-24T07:02:08.061Z,99415.78
2022-12-24T07:07:12.247Z,99415.19
2022-12-24T07:12:15.031Z,99421.03
2022-12-24T07:17:17.893Z,99436.31
2022-12-24T07:22:22.316Z,99454.97
2022-12-24T07:27:25.136Z,99459.38
2022-12-24T07:32:27.878Z,99462.41
2022-12-24T07:37:31.954Z,99462.28
2022-12-24T07:42:34.838Z,99465.59
2022-12-24T07:47:37.763Z,99475.50
2022-12-24T07:52:41.895Z,99488.41
2022-12-24T07:57:44.642Z,99497.47
2022-12-24T08:02:47.482Z,99507.34
2022-12-24T08:07:51.690Z,99504.81
2022-12-24T08:12:54.534Z,99516.09
2022-12-24T08:17:57.442Z,99522.56
2022-12-24T08:23:01.750Z,99523.44
2022-12-24T08:28:04.764Z,99536.53
2022-12-24T08:33:07.913Z,99553.66
2022-12-24T08:38:12.017Z,99561.50
2022-12-24T08:43:15.074Z,99590.41
2022-12-24T08:48:18.246Z,99582.72
2022-12-24T08:53:22.478Z,99584.97
2022-12-24T08:58:25.207Z,99593.94
2022-12-24T09:03:28.534Z,99597.72
2022-12-24T09:08:32.954Z,99609.78
2022-12-24T09:13:36.127Z,99628.00
2022-12-24T09:18:39.354Z,99631.34
2022-12-24T09:23:45.604Z,99633.56
2022-12-24T09:28:48.903Z,99630.75
2022-12-24T09:33:52.587Z,99644.91
2022-12-24T09:38:56.864Z,99640.28
2022-12-24T09:44:05.155Z,99650.94
2022-12-24T09:49:16.054Z,99660.72
2022-12-24T09:54:26.773Z,99674.16
2022-12-24T09:59:40.466Z,99687.47
2022-12-24T10:04:44.876Z,99679.31
2022-12-24T10:10:00.578Z,99677.44
2022-12-24T10:15:12.756Z,99682.09
2022-12-24T10:20:32.002Z,99689.22
2022-12-24T10:25:43.020Z,99675.94
2022-12-24T10:30:50.123Z,99671.56
2022-12-24T10:35:55.942Z,99685.53
2022-12-24T10:41:02.465Z,99700.81
2022-12-24T10:46:10.122Z,99692.63
2022-12-24T10:51:21.161Z,99702.16
2022-12-24T10:56:25.507Z,99710.19
2022-12-24T11:01:44.488Z,99718.13
2022-12-24T11:06:58.462Z,99722.88
2022-12-24T11:12:08.995Z,99722.44
2022-12-24T11:17:21.867Z,99722.00
2022-12-24T11:22:27.019Z,99728.75
2022-12-24T11:27:35.443Z,99718.50
2022-12-24T11:32:38.281Z,99730.53
2022-12-24T11:37:41.156Z,99722.34
2022-12-24T11:42:45.491Z,99727.97
2022-12-24T11:47:48.357Z,99726.66
2022-12-24T11:52:56.723Z,99730.84
2022-12-24T11:58:07.826Z,99725.75
2022-12-24T12:03:27.727Z,99720.13
2022-12-24T12:08:32.112Z,99722.34
2022-12-24T12:13:38.168Z,99727.34
2022-12-24T12:18:46.966Z,99729.66
2022-12-24T12:23:53.758Z,99738.81
2022-12-24T12:29:02.275Z,99741.16
2022-12-24T12:34:10.971Z,99740.97
2022-12-24T12:39:13.880Z,99745.53
2022-12-24T12:44:42.631Z,99744.41
2022-12-24T12:49:57.093Z,99762.63
2022-12-24T12:55:24.112Z,99755.75
2022-12-24T13:00:32.138Z,99759.41
2022-12-24T13:06:11.561Z,99764.44
2022-12-24T13:11:35.416Z,99763.59
2022-12-24T13:17:22.785Z,99770.94
2022-12-24T13:22:25.918Z,99771.91
2022-12-24T13:27:32.498Z,99775.06
2022-12-24T13:32:49.721Z,99782.56
2022-12-24T13:37:55.511Z,99792.56
2022-12-24T13:43:12.347Z,99804.44
2022-12-24T13:48:29.415Z,99811.88
2022-12-24T13:53:34.853Z,99829.84
2022-12-24T13:58:40.791Z,99837.72
2022-12-24T14:03:48.321Z,99832.31
2022-12-24T14:08:55.744Z,99830.25
2022-12-24T14:14:27.754Z,99846.19
2022-12-24T14:19:42.066Z,99849.41
2022-12-24T14:24:51.932Z,99858.47
2022-12-24T14:30:04.173Z,99875.03
2022-12-24T14:35:18.536Z,99860.91
2022-12-24T14:40:26.652Z,99869.44
2022-12-24T14:45:35.494Z,99873.00
2022-12-24T14:50:52.995Z,99876.34
2022-12-24T14:55:55.935Z,99887.38
2022-12-24T15:01:00.411Z,99874.63
2022-12-24T15:06:08.065Z,99882.38
2022-12-24T15:11:15.732Z,99895.00
2022-12-24T15:16:23.707Z,99902.00
2022-12-24T15:21:31.482Z,99907.78
2022-12-24T15:26:36.630Z,99923.03
2022-12-24T15:31:39.548Z,99911.91
2022-12-24T15:36:43.775Z,99918.66
2022-12-24T15:42:00.945Z,99929.22
2022-12-24T15:47:06.515Z,99942.72
2022-12-24T15:52:13.733Z,99961.56
2022-12-24T15:57:23.814Z,99970.53
2022-12-24T16:02:35.775Z,99971.13
2022-12-24T16:08:05.751Z,99971.53
2022-12-24T16:13:14.687Z,99972.75
2022-12-24T16:18:20.901Z,99975.19
2022-12-24T16:23:28.966Z,99978.03
2022-12-24T16:28:32.283Z,99972.16
2022-12-24T16:33:35.025Z,99981.09
2022-12-24T16:38:59.582Z,99977.44
2022-12-24T16:44:02.297Z,99978.91
2022-12-24T16:49:05.516Z,99992.03
2022-12-24T16:54:12.814Z,100001.81
2022-12-24T16:59:18.274Z,100005.28
2022-12-24T17:04:21.083Z,99997.56
2022-12-24T17:09:25.518Z,100017.16
2022-12-24T17:14:28.365Z,100018.66
2022-12-24T17:19:31.159Z,100021.50
2022-12-24T17:24:35.457Z,100032.31
2022-12-24T17:29:38.376Z,100035.19
2022-12-24T17:34:41.167Z,100044.78
2022-12-24T17:39:45.369Z,100051.16
2022-12-24T17:44:48.181Z,100051.06
2022-12-24T17:49:50.899Z,100054.38
2022-12-24T17:54:55.763Z,100059.25
2022-12-24T17:59:58.530Z,100067.97
2022-12-24T18:05:01.402Z,100064.75
2022-12-24T18:10:07.120Z,100077.75
2022-12-24T18:15:10.869Z,100068.44
2022-12-24T18:20:14.230Z,100076.78
2022-12-24T18:25:20.061Z,100072.97
2022-12-24T18:30:27.505Z,100076.66
2022-12-24T18:35:30.624Z,100078.63
2022-12-24T18:40:37.917Z,100072.34
2022-12-24T18:45:41.916Z,100084.88
2022-12-24T18:50:44.719Z,100089.50
2022-12-24T18:55:48.823Z,100093.56
2022-12-24T19:00:51.759Z,100100.09
2022-12-24T19:05:54.554Z,100102.97
2022-12-24T19:10:58.680Z,100109.81
2022-12-24T19:16:01.928Z,100114.25
2022-12-24T19:21:06.512Z,100124.06
2022-12-24T19:26:11.463Z,100132.16
2022-12-24T19:31:15.800Z,100126.38
2022-12-24T19:36:21.511Z,100136.09
2022-12-24T19:41:28.312Z,100140.38
2022-12-24T19:46:33.210Z,100142.22
2022-12-24T19:51:36.763Z,100157.41
2022-12-24T19:56:41.076Z,100173.03
2022-12-24T20:01:44.165Z,100170.91
2022-12-24T20:06:47.308Z,100165.50
2022-12-24T20:11:52.267Z,100167.25
2022-12-24T20:16:55.289Z,100171.69
2022-12-24T20:21:58.235Z,100168.13
2022-12-24T20:27:02.355Z,100177.56
2022-12-24T20:32:05.859Z,100174.25
2022-12-24T20:37:08.730Z,100176.84
2022-12-24T20:42:12.972Z,100179.78
2022-12-24T20:47:15.823Z,100173.75
2022-12-24T20:52:18.655Z,100183.19
2022-12-24T20:57:26.835Z,100182.19
2022-12-24T21:02:32.529Z,100193.69
2022-12-24T21:07:35.492Z,100196.41
2022-12-24T21:12:57.025Z,100190.56
2022-12-24T21:18:00.913Z,100187.09
2022-12-24T21:23:04.190Z,100197.03
2022-12-24T21:28:08.328Z,100212.38
2022-12-24T21:33:11.133Z,100207.50
2022-12-24T21:38:14.076Z,100211.66
2022-12-24T21:43:18.136Z,100211.66
2022-12-24T21:48:38.320Z,100215.59
2022-12-24T21:53:58.545Z,100219.09
2022-12-24T21:59:02.990Z,100229.13
2022-12-24T22:04:06.010Z,100242.31
2022-12-24T22:09:29.383Z,100238.09
2022-12-24T22:14:34.017Z,100241.09
2022-12-24T22:19:37.219Z,100242.19
2022-12-24T22:24:40.120Z,100254.41
2022-12-24T22:29:44.489Z,100258.81
2022-12-24T22:34:49.406Z,100270.59
2022-12-24T22:39:52.282Z,100266.06
2022-12-24T22:44:56.827Z,100279.69
2022-12-24T22:50:00.040Z,100276.00
2022-12-24T22:55:03.775Z,100287.03
2022-12-24T23:00:20.380Z,100288.16
2022-12-24T23:05:23.178Z,100290.38
2022-12-24T23:10:26.120Z,100303.84
2022-12-24T23:15:30.439Z,100283.88
2022-12-24T23:20:33.501Z,100281.06
2022-12-24T23:25:36.439Z,100296.50
2022-12-24T23:30:40.598Z,100308.91
2022-12-24T23:35:43.447Z,100309.25
2022-12-24T23:40:46.243Z,100314.44
2022-12-24T23:45:51.250Z,100307.41
2022-12-24T23:51:03.987Z,100280.53
2022-12-24T23:56:08.116Z,100297.44
